Aeroporto :
LOGIN :

Iscrizione | Disclaimer

   EN    FR    IT 

 










Sommario :    VFR   VFR Marginale   IFR   IFR Intensivo   IFR Molto Intensivo
Visibilità : 
Base nubi : 
>= 8 km
>= 3000ft
5 / 8 km
1000 / 3000 ft
1500m / 5 km
500 / 1000 ft
800 / 1500m
200 / 500 ft
< 800m
< 200 ft
Simboli :   Temporali  Nebbia  Neve Forte  Precipitazioni Forti  Vento > 20 kt
SIGMETs :   Varie  Temporali  Ghiacco  Turbolenza  Onda orograficha  Ceneri Vulcaniche






- Altitudine del aeroporto : 686 ft


LYKV - Ladevci

ULTIMO METAR :
  • 250230Z 00000KT CAVOK 05/05 Q1026 NOSIG

METARs OBSOLETI :
  • 250200Z 00000KT CAVOK 05/05 Q1026 NOSIG
  • 250130Z VRB01KT CAVOK 05/05 Q1026 NOSIG
  • 250100Z 00000KT CAVOK 06/06 Q1026 NOSIG
  • 250030Z 31001KT CAVOK 06/06 Q1026 NOSIG
  • 250000Z 34002KT CAVOK 07/07 Q1026 NOSIG

TAF TAF LYKV
Valido dal 25 a 00 ore il 26 a 00 ore UTC


242300Z 2500/2524 31003KT CAVOK TX19/2513Z TN06/2503Z
TEMPO 2503/2505 3000 BR
TEMPO 2509/2515 31013KT
TEMPO 2516/2522 5000 SHRA SCT027TCU BKN030



MetMap, La meteo Aeronautica in un colpo d'occhio ! - Copyright ORBIFLY Dicembre 2007 - Disclaimer

ORBIFLY MET'MAP TEAM :

Programmazione e sviluppo : Alexandra Zaïnal
Concezione : Baudouin d'Aumeries
Aiuto per la programmazione : Marc-Olivier Méhu
Supporto tecnico e logistico : Manuel Goepfert
Aiuto per la traduzione : Arnaldo La Scala

Contatto : metmap@orbifly.com




FONTI E CREDITI :

   NOAA